sensor_id;sensor_type;location;lat;lon;timestamp;temperature;humidity
73112;HTU21D;61301;51.956;5.876;2024-02-16T00:00:30;17.25;55.60
73112;HTU21D;61301;51.956;5.876;2024-02-16T00:02:57;17.22;55.52
73112;HTU21D;61301;51.956;5.876;2024-02-16T00:05:23;17.21;55.44
73112;HTU21D;61301;51.956;5.876;2024-02-16T00:07:49;17.26;55.25
73112;HTU21D;61301;51.956;5.876;2024-02-16T00:10:15;17.17;55.49
73112;HTU21D;61301;51.956;5.876;2024-02-16T00:12:44;17.13;55.61
73112;HTU21D;61301;51.956;5.876;2024-02-16T00:15:13;17.11;55.72
73112;HTU21D;61301;51.956;5.876;2024-02-16T00:17:39;17.15;55.55
73112;HTU21D;61301;51.956;5.876;2024-02-16T00:20:05;17.11;55.49
73112;HTU21D;61301;51.956;5.876;2024-02-16T00:22:33;17.09;55.57
73112;HTU21D;61301;51.956;5.876;2024-02-16T00:24:59;17.07;55.70
73112;HTU21D;61301;51.956;5.876;2024-02-16T00:27:26;17.03;55.72
73112;HTU21D;61301;51.956;5.876;2024-02-16T00:29:52;17.03;55.71
73112;HTU21D;61301;51.956;5.876;2024-02-16T00:32:18;16.99;55.81
73112;HTU21D;61301;51.956;5.876;2024-02-16T00:34:45;16.99;55.82
73112;HTU21D;61301;51.956;5.876;2024-02-16T00:37:11;17.01;55.84
73112;HTU21D;61301;51.956;5.876;2024-02-16T00:39:40;16.93;55.90
73112;HTU21D;61301;51.956;5.876;2024-02-16T00:42:07;16.92;55.94
73112;HTU21D;61301;51.956;5.876;2024-02-16T00:44:33;16.92;55.96
73112;HTU21D;61301;51.956;5.876;2024-02-16T00:46:59;16.93;55.90
73112;HTU21D;61301;51.956;5.876;2024-02-16T00:49:25;16.91;55.90
73112;HTU21D;61301;51.956;5.876;2024-02-16T00:51:51;16.94;55.94
73112;HTU21D;61301;51.956;5.876;2024-02-16T00:54:17;16.95;55.81
73112;HTU21D;61301;51.956;5.876;2024-02-16T00:56:43;16.92;55.97
73112;HTU21D;61301;51.956;5.876;2024-02-16T00:59:09;16.94;55.95
73112;HTU21D;61301;51.956;5.876;2024-02-16T01:01:36;16.91;55.92
73112;HTU21D;61301;51.956;5.876;2024-02-16T01:04:02;16.93;55.95
73112;HTU21D;61301;51.956;5.876;2024-02-16T01:06:28;16.87;55.91
73112;HTU21D;61301;51.956;5.876;2024-02-16T01:08:54;16.86;55.99
73112;HTU21D;61301;51.956;5.876;2024-02-16T01:11:21;16.87;55.92
73112;HTU21D;61301;51.956;5.876;2024-02-16T01:13:48;16.82;55.92
73112;HTU21D;61301;51.956;5.876;2024-02-16T01:16:15;16.81;56.04
73112;HTU21D;61301;51.956;5.876;2024-02-16T01:18:41;16.85;56.07
73112;HTU21D;61301;51.956;5.876;2024-02-16T01:21:13;16.91;56.05
73112;HTU21D;61301;51.956;5.876;2024-02-16T01:23:39;16.88;56.12
73112;HTU21D;61301;51.956;5.876;2024-02-16T01:26:05;16.87;56.05
73112;HTU21D;61301;51.956;5.876;2024-02-16T01:28:31;16.82;56.09
73112;HTU21D;61301;51.956;5.876;2024-02-16T01:30:57;16.82;56.10
73112;HTU21D;61301;51.956;5.876;2024-02-16T01:33:23;16.82;56.09
73112;HTU21D;61301;51.956;5.876;2024-02-16T01:35:49;16.85;56.04
73112;HTU21D;61301;51.956;5.876;2024-02-16T01:38:15;16.81;56.03
73112;HTU21D;61301;51.956;5.876;2024-02-16T01:40:41;16.81;56.20
73112;HTU21D;61301;51.956;5.876;2024-02-16T01:43:07;16.82;56.22
73112;HTU21D;61301;51.956;5.876;2024-02-16T01:45:33;16.79;56.19
73112;HTU21D;61301;51.956;5.876;2024-02-16T01:47:58;16.78;56.13
73112;HTU21D;61301;51.956;5.876;2024-02-16T01:50:28;16.74;56.15
73112;HTU21D;61301;51.956;5.876;2024-02-16T01:52:55;16.71;56.11
73112;HTU21D;61301;51.956;5.876;2024-02-16T01:55:23;16.73;56.09
73112;HTU21D;61301;51.956;5.876;2024-02-16T01:57:55;16.67;56.04
73112;HTU21D;61301;51.956;5.876;2024-02-16T02:00:23;16.63;56.05
73112;HTU21D;61301;51.956;5.876;2024-02-16T02:02:50;16.65;56.18
73112;HTU21D;61301;51.956;5.876;2024-02-16T02:05:16;16.64;56.16
73112;HTU21D;61301;51.956;5.876;2024-02-16T02:07:42;16.64;56.19
73112;HTU21D;61301;51.956;5.876;2024-02-16T02:10:09;16.67;56.26
73112;HTU21D;61301;51.956;5.876;2024-02-16T02:12:38;16.69;56.24
73112;HTU21D;61301;51.956;5.876;2024-02-16T02:15:05;16.66;56.21
73112;HTU21D;61301;51.956;5.876;2024-02-16T02:17:31;16.64;56.10
73112;HTU21D;61301;51.956;5.876;2024-02-16T02:19:57;16.59;56.29
73112;HTU21D;61301;51.956;5.876;2024-02-16T02:22:23;16.59;56.34
73112;HTU21D;61301;51.956;5.876;2024-02-16T02:24:49;16.58;56.35
73112;HTU21D;61301;51.956;5.876;2024-02-16T02:27:15;16.61;56.40
73112;HTU21D;61301;51.956;5.876;2024-02-16T02:29:42;16.59;56.39
73112;HTU21D;61301;51.956;5.876;2024-02-16T02:32:08;16.65;56.30
73112;HTU21D;61301;51.956;5.876;2024-02-16T02:34:41;16.64;56.64
73112;HTU21D;61301;51.956;5.876;2024-02-16T02:37:07;16.61;56.59
73112;HTU21D;61301;51.956;5.876;2024-02-16T02:39:34;16.58;56.50
73112;HTU21D;61301;51.956;5.876;2024-02-16T02:42:00;16.55;56.50
73112;HTU21D;61301;51.956;5.876;2024-02-16T02:44:26;16.52;56.53
73112;HTU21D;61301;51.956;5.876;2024-02-16T02:46:52;16.43;56.36
73112;HTU21D;61301;51.956;5.876;2024-02-16T02:49:21;16.39;56.71
73112;HTU21D;61301;51.956;5.876;2024-02-16T02:51:47;16.42;56.71
73112;HTU21D;61301;51.956;5.876;2024-02-16T02:54:13;16.44;56.61
73112;HTU21D;61301;51.956;5.876;2024-02-16T02:56:39;16.44;56.38
73112;HTU21D;61301;51.956;5.876;2024-02-16T02:59:05;16.39;56.57
73112;HTU21D;61301;51.956;5.876;2024-02-16T03:01:32;16.39;56.68
73112;HTU21D;61301;51.956;5.876;2024-02-16T03:03:58;16.34;56.80
73112;HTU21D;61301;51.956;5.876;2024-02-16T03:06:25;16.36;56.77
73112;HTU21D;61301;51.956;5.876;2024-02-16T03:08:51;16.39;56.75
73112;HTU21D;61301;51.956;5.876;2024-02-16T03:11:17;16.40;56.72
73112;HTU21D;61301;51.956;5.876;2024-02-16T03:13:46;16.41;56.66
73112;HTU21D;61301;51.956;5.876;2024-02-16T03:16:12;16.42;56.64
73112;HTU21D;61301;51.956;5.876;2024-02-16T03:18:39;16.41;56.54
73112;HTU21D;61301;51.956;5.876;2024-02-16T03:21:05;16.36;56.36
73112;HTU21D;61301;51.956;5.876;2024-02-16T03:23:31;16.34;56.44
73112;HTU21D;61301;51.956;5.876;2024-02-16T03:25:57;16.40;56.61
73112;HTU21D;61301;51.956;5.876;2024-02-16T03:28:23;16.46;56.45
73112;HTU21D;61301;51.956;5.876;2024-02-16T03:30:49;16.44;56.39
73112;HTU21D;61301;51.956;5.876;2024-02-16T03:33:18;16.44;56.37
73112;HTU21D;61301;51.956;5.876;2024-02-16T03:35:44;16.45;56.45
73112;HTU21D;61301;51.956;5.876;2024-02-16T03:38:10;16.47;56.41
73112;HTU21D;61301;51.956;5.876;2024-02-16T03:40:36;16.51;56.41
73112;HTU21D;61301;51.956;5.876;2024-02-16T03:43:02;16.56;55.77
73112;HTU21D;61301;51.956;5.876;2024-02-16T03:45:28;16.58;55.58
73112;HTU21D;61301;51.956;5.876;2024-02-16T03:48:00;16.61;55.78
73112;HTU21D;61301;51.956;5.876;2024-02-16T03:50:26;16.66;55.66
73112;HTU21D;61301;51.956;5.876;2024-02-16T03:52:52;16.64;55.65
73112;HTU21D;61301;51.956;5.876;2024-02-16T03:55:18;16.67;55.68
73112;HTU21D;61301;51.956;5.876;2024-02-16T03:57:45;16.72;55.29
73112;HTU21D;61301;51.956;5.876;2024-02-16T04:00:12;16.82;54.59
73112;HTU21D;61301;51.956;5.876;2024-02-16T04:02:40;16.78;54.96
73112;HTU21D;61301;51.956;5.876;2024-02-16T04:05:06;16.81;54.99
73112;HTU21D;61301;51.956;5.876;2024-02-16T04:07:34;16.80;54.64
73112;HTU21D;61301;51.956;5.876;2024-02-16T04:10:00;16.84;54.42
73112;HTU21D;61301;51.956;5.876;2024-02-16T04:12:26;16.86;54.45
73112;HTU21D;61301;51.956;5.876;2024-02-16T04:14:52;16.93;53.91
73112;HTU21D;61301;51.956;5.876;2024-02-16T04:17:20;16.90;54.23
73112;HTU21D;61301;51.956;5.876;2024-02-16T04:19:46;16.94;54.13
73112;HTU21D;61301;51.956;5.876;2024-02-16T04:22:12;17.00;54.11
73112;HTU21D;61301;51.956;5.876;2024-02-16T04:24:38;17.07;53.70
73112;HTU21D;61301;51.956;5.876;2024-02-16T04:27:04;17.16;53.23
73112;HTU21D;61301;51.956;5.876;2024-02-16T04:29:30;17.22;53.03
73112;HTU21D;61301;51.956;5.876;2024-02-16T04:31:56;17.25;52.92
73112;HTU21D;61301;51.956;5.876;2024-02-16T04:34:22;17.30;52.82
73112;HTU21D;61301;51.956;5.876;2024-02-16T04:36:48;17.37;52.60
73112;HTU21D;61301;51.956;5.876;2024-02-16T04:39:17;17.36;52.88
73112;HTU21D;61301;51.956;5.876;2024-02-16T04:41:45;17.45;52.60
73112;HTU21D;61301;51.956;5.876;2024-02-16T04:44:11;17.45;52.56
73112;HTU21D;61301;51.956;5.876;2024-02-16T04:46:38;17.47;52.49
73112;HTU21D;61301;51.956;5.876;2024-02-16T04:49:04;17.56;52.25
73112;HTU21D;61301;51.956;5.876;2024-02-16T04:51:30;17.62;51.98
73112;HTU21D;61301;51.956;5.876;2024-02-16T04:53:56;17.61;51.97
73112;HTU21D;61301;51.956;5.876;2024-02-16T04:56:22;17.68;51.82
73112;HTU21D;61301;51.956;5.876;2024-02-16T04:58:48;17.68;51.94
73112;HTU21D;61301;51.956;5.876;2024-02-16T05:01:14;17.67;51.88
73112;HTU21D;61301;51.956;5.876;2024-02-16T05:03:40;17.76;51.74
73112;HTU21D;61301;51.956;5.876;2024-02-16T05:06:12;17.72;51.83
73112;HTU21D;61301;51.956;5.876;2024-02-16T05:08:38;17.75;51.83
73112;HTU21D;61301;51.956;5.876;2024-02-16T05:11:04;17.77;51.59
73112;HTU21D;61301;51.956;5.876;2024-02-16T05:13:39;17.91;51.22
73112;HTU21D;61301;51.956;5.876;2024-02-16T05:16:09;17.90;51.36
73112;HTU21D;61301;51.956;5.876;2024-02-16T05:18:35;17.88;51.45
73112;HTU21D;61301;51.956;5.876;2024-02-16T05:21:01;17.81;51.72
73112;HTU21D;61301;51.956;5.876;2024-02-16T05:23:27;17.92;51.41
73112;HTU21D;61301;51.956;5.876;2024-02-16T05:25:53;17.87;51.67
73112;HTU21D;61301;51.956;5.876;2024-02-16T05:28:20;17.88;51.59
73112;HTU21D;61301;51.956;5.876;2024-02-16T05:30:46;17.78;51.89
73112;HTU21D;61301;51.956;5.876;2024-02-16T05:33:12;17.80;51.78
73112;HTU21D;61301;51.956;5.876;2024-02-16T05:35:42;17.79;52.00
73112;HTU21D;61301;51.956;5.876;2024-02-16T05:38:10;17.78;52.04
73112;HTU21D;61301;51.956;5.876;2024-02-16T05:40:47;17.80;51.98
73112;HTU21D;61301;51.956;5.876;2024-02-16T05:43:19;17.78;52.04
73112;HTU21D;61301;51.956;5.876;2024-02-16T05:45:46;17.78;52.19
73112;HTU21D;61301;51.956;5.876;2024-02-16T05:48:12;17.79;52.07
73112;HTU21D;61301;51.956;5.876;2024-02-16T05:50:41;17.76;52.27
73112;HTU21D;61301;51.956;5.876;2024-02-16T05:53:07;17.74;52.29
73112;HTU21D;61301;51.956;5.876;2024-02-16T05:55:36;17.76;52.25
73112;HTU21D;61301;51.956;5.876;2024-02-16T05:58:03;17.75;52.05
73112;HTU21D;61301;51.956;5.876;2024-02-16T06:00:33;17.85;51.93
73112;HTU21D;61301;51.956;5.876;2024-02-16T06:03:00;18.02;51.56
73112;HTU21D;61301;51.956;5.876;2024-02-16T06:05:26;17.84;52.04
73112;HTU21D;61301;51.956;5.876;2024-02-16T06:07:54;17.80;52.09
73112;HTU21D;61301;51.956;5.876;2024-02-16T06:10:22;17.81;52.25
73112;HTU21D;61301;51.956;5.876;2024-02-16T06:12:48;17.85;52.17
73112;HTU21D;61301;51.956;5.876;2024-02-16T06:15:14;17.81;52.23
73112;HTU21D;61301;51.956;5.876;2024-02-16T06:17:40;17.82;52.19
73112;HTU21D;61301;51.956;5.876;2024-02-16T06:20:07;17.79;52.38
73112;HTU21D;61301;51.956;5.876;2024-02-16T06:22:36;17.84;52.33
73112;HTU21D;61301;51.956;5.876;2024-02-16T06:25:02;17.92;52.15
73112;HTU21D;61301;51.956;5.876;2024-02-16T06:27:28;17.91;52.18
73112;HTU21D;61301;51.956;5.876;2024-02-16T06:29:57;17.88;52.32
73112;HTU21D;61301;51.956;5.876;2024-02-16T06:32:23;17.85;52.44
73112;HTU21D;61301;51.956;5.876;2024-02-16T06:34:49;17.83;52.43
73112;HTU21D;61301;51.956;5.876;2024-02-16T06:37:18;17.92;52.36
73112;HTU21D;61301;51.956;5.876;2024-02-16T06:39:44;17.98;52.37
73112;HTU21D;61301;51.956;5.876;2024-02-16T06:42:10;17.92;52.47
73112;HTU21D;61301;51.956;5.876;2024-02-16T06:44:39;17.91;52.43
73112;HTU21D;61301;51.956;5.876;2024-02-16T06:47:06;17.92;52.47
73112;HTU21D;61301;51.956;5.876;2024-02-16T06:49:32;17.93;52.56
73112;HTU21D;61301;51.956;5.876;2024-02-16T06:51:58;17.94;52.59
73112;HTU21D;61301;51.956;5.876;2024-02-16T06:54:25;17.95;52.55
73112;HTU21D;61301;51.956;5.876;2024-02-16T06:56:53;17.94;52.59
73112;HTU21D;61301;51.956;5.876;2024-02-16T06:59:19;17.89;52.74
73112;HTU21D;61301;51.956;5.876;2024-02-16T07:01:45;17.95;52.62
73112;HTU21D;61301;51.956;5.876;2024-02-16T07:04:11;17.92;52.75
73112;HTU21D;61301;51.956;5.876;2024-02-16T07:06:37;17.89;52.82
73112;HTU21D;61301;51.956;5.876;2024-02-16T07:09:04;17.93;52.82
73112;HTU21D;61301;51.956;5.876;2024-02-16T07:11:30;17.91;53.01
73112;HTU21D;61301;51.956;5.876;2024-02-16T07:13:56;17.90;53.10
73112;HTU21D;61301;51.956;5.876;2024-02-16T07:16:22;17.91;53.07
73112;HTU21D;61301;51.956;5.876;2024-02-16T07:18:48;17.89;53.14
73112;HTU21D;61301;51.956;5.876;2024-02-16T07:21:14;17.89;53.27
73112;HTU21D;61301;51.956;5.876;2024-02-16T07:23:40;17.90;53.27
73112;HTU21D;61301;51.956;5.876;2024-02-16T07:26:06;17.90;53.36
73112;HTU21D;61301;51.956;5.876;2024-02-16T07:28:33;17.93;53.36
73112;HTU21D;61301;51.956;5.876;2024-02-16T07:30:59;17.98;53.23
73112;HTU21D;61301;51.956;5.876;2024-02-16T07:33:28;18.07;53.20
73112;HTU21D;61301;51.956;5.876;2024-02-16T07:35:54;18.02;53.25
73112;HTU21D;61301;51.956;5.876;2024-02-16T07:38:21;18.06;53.19
73112;HTU21D;61301;51.956;5.876;2024-02-16T07:40:47;18.06;53.19
73112;HTU21D;61301;51.956;5.876;2024-02-16T07:43:14;18.13;53.04
73112;HTU21D;61301;51.956;5.876;2024-02-16T07:45:40;18.10;53.24
73112;HTU21D;61301;51.956;5.876;2024-02-16T07:48:06;18.14;53.21
73112;HTU21D;61301;51.956;5.876;2024-02-16T07:50:33;18.10;53.36
73112;HTU21D;61301;51.956;5.876;2024-02-16T07:52:59;18.17;52.98
73112;HTU21D;61301;51.956;5.876;2024-02-16T07:55:25;18.24;52.86
73112;HTU21D;61301;51.956;5.876;2024-02-16T07:57:51;18.18;53.12
73112;HTU21D;61301;51.956;5.876;2024-02-16T08:00:18;18.14;53.36
73112;HTU21D;61301;51.956;5.876;2024-02-16T08:02:44;18.12;53.45
73112;HTU21D;61301;51.956;5.876;2024-02-16T08:05:11;18.13;53.47
73112;HTU21D;61301;51.956;5.876;2024-02-16T08:07:38;18.13;53.52
73112;HTU21D;61301;51.956;5.876;2024-02-16T08:10:08;18.17;53.54
73112;HTU21D;61301;51.956;5.876;2024-02-16T08:12:35;18.19;53.63
73112;HTU21D;61301;51.956;5.876;2024-02-16T08:15:05;18.21;53.60
73112;HTU21D;61301;51.956;5.876;2024-02-16T08:17:33;18.19;53.73
73112;HTU21D;61301;51.956;5.876;2024-02-16T08:20:00;18.18;53.75
73112;HTU21D;61301;51.956;5.876;2024-02-16T08:22:26;18.25;53.59
73112;HTU21D;61301;51.956;5.876;2024-02-16T08:24:52;18.25;53.71
73112;HTU21D;61301;51.956;5.876;2024-02-16T08:27:18;18.27;53.73
73112;HTU21D;61301;51.956;5.876;2024-02-16T08:29:44;18.29;53.78
73112;HTU21D;61301;51.956;5.876;2024-02-16T08:32:13;18.34;53.85
73112;HTU21D;61301;51.956;5.876;2024-02-16T08:34:39;18.37;53.78
73112;HTU21D;61301;51.956;5.876;2024-02-16T08:37:06;18.44;53.57
73112;HTU21D;61301;51.956;5.876;2024-02-16T08:39:33;18.48;53.53
73112;HTU21D;61301;51.956;5.876;2024-02-16T08:42:00;18.44;53.72
73112;HTU21D;61301;51.956;5.876;2024-02-16T08:44:26;18.47;53.74
73112;HTU21D;61301;51.956;5.876;2024-02-16T08:46:52;18.51;53.76
73112;HTU21D;61301;51.956;5.876;2024-02-16T08:49:20;18.52;53.92
73112;HTU21D;61301;51.956;5.876;2024-02-16T08:51:47;18.54;54.01
73112;HTU21D;61301;51.956;5.876;2024-02-16T08:54:13;18.53;54.04
73112;HTU21D;61301;51.956;5.876;2024-02-16T08:56:39;18.56;54.11
73112;HTU21D;61301;51.956;5.876;2024-02-16T08:59:05;18.58;54.27
73112;HTU21D;61301;51.956;5.876;2024-02-16T09:01:35;18.61;54.20
73112;HTU21D;61301;51.956;5.876;2024-02-16T09:04:05;18.65;54.20
73112;HTU21D;61301;51.956;5.876;2024-02-16T09:06:31;18.66;54.23
73112;HTU21D;61301;51.956;5.876;2024-02-16T09:08:57;18.67;54.24
73112;HTU21D;61301;51.956;5.876;2024-02-16T09:11:23;18.67;54.36
73112;HTU21D;61301;51.956;5.876;2024-02-16T09:13:50;18.67;54.33
73112;HTU21D;61301;51.956;5.876;2024-02-16T09:16:16;18.67;54.38
73112;HTU21D;61301;51.956;5.876;2024-02-16T09:18:42;18.69;54.36
73112;HTU21D;61301;51.956;5.876;2024-02-16T09:21:08;18.71;54.35
73112;HTU21D;61301;51.956;5.876;2024-02-16T09:23:36;18.70;54.39
73112;HTU21D;61301;51.956;5.876;2024-02-16T09:26:03;18.71;54.46
73112;HTU21D;61301;51.956;5.876;2024-02-16T09:28:29;18.70;54.52
73112;HTU21D;61301;51.956;5.876;2024-02-16T09:30:56;18.68;54.52
73112;HTU21D;61301;51.956;5.876;2024-02-16T09:33:22;18.69;54.63
73112;HTU21D;61301;51.956;5.876;2024-02-16T09:35:50;18.74;54.63
73112;HTU21D;61301;51.956;5.876;2024-02-16T09:38:17;18.76;54.55
73112;HTU21D;61301;51.956;5.876;2024-02-16T09:40:44;18.73;54.71
73112;HTU21D;61301;51.956;5.876;2024-02-16T09:43:10;18.73;54.78
73112;HTU21D;61301;51.956;5.876;2024-02-16T09:45:37;18.70;54.93
73112;HTU21D;61301;51.956;5.876;2024-02-16T09:48:07;18.70;55.12
73112;HTU21D;61301;51.956;5.876;2024-02-16T09:50:34;18.70;55.10
73112;HTU21D;61301;51.956;5.876;2024-02-16T09:53:03;18.69;55.33
73112;HTU21D;61301;51.956;5.876;2024-02-16T09:55:32;18.71;55.33
73112;HTU21D;61301;51.956;5.876;2024-02-16T09:58:00;18.69;55.36
73112;HTU21D;61301;51.956;5.876;2024-02-16T10:00:26;18.70;55.52
73112;HTU21D;61301;51.956;5.876;2024-02-16T10:02:52;18.69;55.68
73112;HTU21D;61301;51.956;5.876;2024-02-16T10:05:21;18.77;55.58
73112;HTU21D;61301;51.956;5.876;2024-02-16T10:07:48;18.77;55.49
73112;HTU21D;61301;51.956;5.876;2024-02-16T10:10:24;18.81;55.55
73112;HTU21D;61301;51.956;5.876;2024-02-16T10:13:06;18.87;55.44
73112;HTU21D;61301;51.956;5.876;2024-02-16T10:15:34;18.85;55.38
73112;HTU21D;61301;51.956;5.876;2024-02-16T10:18:04;18.88;55.40
73112;HTU21D;61301;51.956;5.876;2024-02-16T10:20:35;18.89;55.51
73112;HTU21D;61301;51.956;5.876;2024-02-16T10:23:10;18.89;55.57
73112;HTU21D;61301;51.956;5.876;2024-02-16T10:25:38;18.86;55.51
73112;HTU21D;61301;51.956;5.876;2024-02-16T10:28:06;18.84;55.58
73112;HTU21D;61301;51.956;5.876;2024-02-16T10:30:40;18.88;55.36
73112;HTU21D;61301;51.956;5.876;2024-02-16T10:33:08;18.83;55.49
73112;HTU21D;61301;51.956;5.876;2024-02-16T10:35:36;18.83;55.44
73112;HTU21D;61301;51.956;5.876;2024-02-16T10:38:03;18.83;55.60
73112;HTU21D;61301;51.956;5.876;2024-02-16T10:40:39;18.82;55.70
73112;HTU21D;61301;51.956;5.876;2024-02-16T10:43:07;18.80;55.71
73112;HTU21D;61301;51.956;5.876;2024-02-16T10:45:35;18.78;55.88
73112;HTU21D;61301;51.956;5.876;2024-02-16T10:48:02;18.78;55.96
73112;HTU21D;61301;51.956;5.876;2024-02-16T10:50:29;18.79;56.10
73112;HTU21D;61301;51.956;5.876;2024-02-16T10:52:56;18.73;56.38
73112;HTU21D;61301;51.956;5.876;2024-02-16T10:55:23;18.70;56.52
73112;HTU21D;61301;51.956;5.876;2024-02-16T10:57:50;18.72;56.52
73112;HTU21D;61301;51.956;5.876;2024-02-16T11:00:16;18.71;56.56
73112;HTU21D;61301;51.956;5.876;2024-02-16T11:02:55;18.72;56.69
73112;HTU21D;61301;51.956;5.876;2024-02-16T11:05:41;18.69;56.88
73112;HTU21D;61301;51.956;5.876;2024-02-16T11:08:18;18.64;57.39
73112;HTU21D;61301;51.956;5.876;2024-02-16T11:11:00;18.57;57.91
73112;HTU21D;61301;51.956;5.876;2024-02-16T11:13:28;18.49;58.25
73112;HTU21D;61301;51.956;5.876;2024-02-16T11:16:07;18.48;58.56
73112;HTU21D;61301;51.956;5.876;2024-02-16T11:18:41;18.46;58.86
73112;HTU21D;61301;51.956;5.876;2024-02-16T11:21:12;18.33;59.20
73112;HTU21D;61301;51.956;5.876;2024-02-16T11:23:39;18.30;59.44
73112;HTU21D;61301;51.956;5.876;2024-02-16T11:26:09;18.24;59.73
73112;HTU21D;61301;51.956;5.876;2024-02-16T11:28:41;18.24;59.91
73112;HTU21D;61301;51.956;5.876;2024-02-16T11:31:07;18.18;60.06
73112;HTU21D;61301;51.956;5.876;2024-02-16T11:33:34;18.10;60.51
73112;HTU21D;61301;51.956;5.876;2024-02-16T11:36:01;18.05;60.88
73112;HTU21D;61301;51.956;5.876;2024-02-16T11:38:31;18.03;60.93
73112;HTU21D;61301;51.956;5.876;2024-02-16T11:41:00;18.06;61.09
73112;HTU21D;61301;51.956;5.876;2024-02-16T11:43:26;17.96;61.41
73112;HTU21D;61301;51.956;5.876;2024-02-16T11:45:53;17.92;61.61
73112;HTU21D;61301;51.956;5.876;2024-02-16T11:48:24;17.90;61.95
73112;HTU21D;61301;51.956;5.876;2024-02-16T11:50:59;17.89;62.18
73112;HTU21D;61301;51.956;5.876;2024-02-16T11:53:25;17.80;62.36
73112;HTU21D;61301;51.956;5.876;2024-02-16T11:55:51;17.69;62.60
73112;HTU21D;61301;51.956;5.876;2024-02-16T11:58:17;17.74;62.44
73112;HTU21D;61301;51.956;5.876;2024-02-16T12:00:47;17.81;62.15
73112;HTU21D;61301;51.956;5.876;2024-02-16T12:03:23;17.83;62.32
73112;HTU21D;61301;51.956;5.876;2024-02-16T12:05:56;17.69;62.50
73112;HTU21D;61301;51.956;5.876;2024-02-16T12:08:23;17.65;62.45
73112;HTU21D;61301;51.956;5.876;2024-02-16T12:10:50;17.73;62.33
73112;HTU21D;61301;51.956;5.876;2024-02-16T12:13:18;17.69;62.42
73112;HTU21D;61301;51.956;5.876;2024-02-16T12:15:49;17.72;62.46
73112;HTU21D;61301;51.956;5.876;2024-02-16T12:18:25;17.70;62.56
73112;HTU21D;61301;51.956;5.876;2024-02-16T12:23:23;17.77;62.29
73112;HTU21D;61301;51.956;5.876;2024-02-16T12:25:49;17.65;62.60
73112;HTU21D;61301;51.956;5.876;2024-02-16T12:28:16;17.68;62.53
73112;HTU21D;61301;51.956;5.876;2024-02-16T12:30:44;17.61;62.63
73112;HTU21D;61301;51.956;5.876;2024-02-16T12:33:10;17.63;62.59
73112;HTU21D;61301;51.956;5.876;2024-02-16T12:35:36;17.66;62.50
73112;HTU21D;61301;51.956;5.876;2024-02-16T12:38:02;17.72;62.34
73112;HTU21D;61301;51.956;5.876;2024-02-16T12:40:31;17.70;62.44
73112;HTU21D;61301;51.956;5.876;2024-02-16T12:42:57;17.61;62.76
73112;HTU21D;61301;51.956;5.876;2024-02-16T12:45:23;17.52;62.96
73112;HTU21D;61301;51.956;5.876;2024-02-16T12:47:50;17.50;63.14
73112;HTU21D;61301;51.956;5.876;2024-02-16T12:50:16;17.53;63.18
73112;HTU21D;61301;51.956;5.876;2024-02-16T12:52:45;17.58;62.95
73112;HTU21D;61301;51.956;5.876;2024-02-16T12:55:11;17.54;62.98
73112;HTU21D;61301;51.956;5.876;2024-02-16T12:57:37;17.53;63.02
73112;HTU21D;61301;51.956;5.876;2024-02-16T13:00:04;17.50;63.12
73112;HTU21D;61301;51.956;5.876;2024-02-16T13:02:30;17.45;63.24
73112;HTU21D;61301;51.956;5.876;2024-02-16T13:04:56;17.47;63.18
73112;HTU21D;61301;51.956;5.876;2024-02-16T13:07:24;17.54;63.02
73112;HTU21D;61301;51.956;5.876;2024-02-16T13:09:50;17.61;62.93
73112;HTU21D;61301;51.956;5.876;2024-02-16T13:12:17;17.56;62.95
73112;HTU21D;61301;51.956;5.876;2024-02-16T13:14:43;17.62;62.93
73112;HTU21D;61301;51.956;5.876;2024-02-16T13:17:09;17.62;62.84
73112;HTU21D;61301;51.956;5.876;2024-02-16T13:19:35;17.59;62.92
73112;HTU21D;61301;51.956;5.876;2024-02-16T13:22:01;17.62;62.93
73112;HTU21D;61301;51.956;5.876;2024-02-16T13:24:27;17.56;62.79
73112;HTU21D;61301;51.956;5.876;2024-02-16T13:26:53;17.46;62.91
73112;HTU21D;61301;51.956;5.876;2024-02-16T13:29:19;17.41;62.93
73112;HTU21D;61301;51.956;5.876;2024-02-16T13:31:45;17.45;62.94
73112;HTU21D;61301;51.956;5.876;2024-02-16T13:34:11;17.45;62.97
73112;HTU21D;61301;51.956;5.876;2024-02-16T13:36:37;17.46;63.02
73112;HTU21D;61301;51.956;5.876;2024-02-16T13:39:03;17.45;63.06
73112;HTU21D;61301;51.956;5.876;2024-02-16T13:41:29;17.55;63.05
73112;HTU21D;61301;51.956;5.876;2024-02-16T13:43:55;17.54;63.03
73112;HTU21D;61301;51.956;5.876;2024-02-16T13:46:21;17.63;62.82
73112;HTU21D;61301;51.956;5.876;2024-02-16T13:48:47;17.68;62.57
73112;HTU21D;61301;51.956;5.876;2024-02-16T13:51:13;17.70;62.47
73112;HTU21D;61301;51.956;5.876;2024-02-16T13:53:39;17.58;62.60
73112;HTU21D;61301;51.956;5.876;2024-02-16T13:56:05;17.63;62.53
73112;HTU21D;61301;51.956;5.876;2024-02-16T13:58:32;17.56;62.50
73112;HTU21D;61301;51.956;5.876;2024-02-16T14:01:00;17.58;62.56
73112;HTU21D;61301;51.956;5.876;2024-02-16T14:03:36;17.70;62.52
73112;HTU21D;61301;51.956;5.876;2024-02-16T14:06:02;17.68;62.24
73112;HTU21D;61301;51.956;5.876;2024-02-16T14:08:29;17.66;62.28
73112;HTU21D;61301;51.956;5.876;2024-02-16T14:10:56;17.61;62.21
73112;HTU21D;61301;51.956;5.876;2024-02-16T14:13:22;17.62;62.20
73112;HTU21D;61301;51.956;5.876;2024-02-16T14:15:50;17.73;61.94
73112;HTU21D;61301;51.956;5.876;2024-02-16T14:18:16;17.64;62.12
73112;HTU21D;61301;51.956;5.876;2024-02-16T14:20:42;17.64;62.16
73112;HTU21D;61301;51.956;5.876;2024-02-16T14:23:08;17.68;62.17
73112;HTU21D;61301;51.956;5.876;2024-02-16T14:25:37;17.74;62.12
73112;HTU21D;61301;51.956;5.876;2024-02-16T14:28:06;17.74;62.01
73112;HTU21D;61301;51.956;5.876;2024-02-16T14:30:33;17.69;61.95
73112;HTU21D;61301;51.956;5.876;2024-02-16T14:33:00;17.67;62.05
73112;HTU21D;61301;51.956;5.876;2024-02-16T14:35:25;17.79;61.76
73112;HTU21D;61301;51.956;5.876;2024-02-16T14:37:51;17.83;61.54
73112;HTU21D;61301;51.956;5.876;2024-02-16T14:40:17;17.83;61.73
73112;HTU21D;61301;51.956;5.876;2024-02-16T14:42:43;17.95;61.67
73112;HTU21D;61301;51.956;5.876;2024-02-16T14:45:09;17.95;61.05
73112;HTU21D;61301;51.956;5.876;2024-02-16T14:47:45;17.96;60.93
73112;HTU21D;61301;51.956;5.876;2024-02-16T14:50:14;17.95;61.13
73112;HTU21D;61301;51.956;5.876;2024-02-16T14:52:41;17.94;61.06
73112;HTU21D;61301;51.956;5.876;2024-02-16T14:55:08;17.94;60.90
73112;HTU21D;61301;51.956;5.876;2024-02-16T14:57:45;18.03;60.93
73112;HTU21D;61301;51.956;5.876;2024-02-16T15:00:11;18.04;60.67
73112;HTU21D;61301;51.956;5.876;2024-02-16T15:02:38;18.06;60.09
73112;HTU21D;61301;51.956;5.876;2024-02-16T15:05:07;17.99;60.02
73112;HTU21D;61301;51.956;5.876;2024-02-16T15:07:40;17.94;60.01
73112;HTU21D;61301;51.956;5.876;2024-02-16T15:10:06;17.89;60.16
73112;HTU21D;61301;51.956;5.876;2024-02-16T15:12:32;17.90;60.24
73112;HTU21D;61301;51.956;5.876;2024-02-16T15:14:58;17.97;60.14
73112;HTU21D;61301;51.956;5.876;2024-02-16T15:17:27;17.96;59.85